Time;durP1;ratioP1;P1;durP2;ratioP2;P2;SDS_P1;SDS_P2;PMS_P1;PMS_P2;Temp;Humidity;BMP_temperature;BMP_pressure;BME280_temperature;BME280_humidity;BME280_pressure;Samples;Min_cycle;Max_cycle;Signal;HPM_P1;HPM_P2
2021/10/07 00:01:37;;;;;;;14.63;3.67;;;;;;;12.62;100.00;102479.28;5053089;28;20033;-60
2021/10/07 00:04:03;;;;;;;16.73;3.42;;;;;;;12.61;100.00;102485.53;5052767;28;20033;-61
2021/10/07 00:06:28;;;;;;;17.17;3.53;;;;;;;12.58;100.00;102482.97;5052721;28;20082;-60
2021/10/07 00:08:53;;;;;;;13.05;2.78;;;;;;;12.55;100.00;102484.81;5053078;28;20032;-59
2021/10/07 00:11:18;;;;;;;12.43;2.70;;;;;;;12.52;100.00;102474.25;5052880;28;20060;-61
2021/10/07 00:13:44;;;;;;;10.02;2.75;;;;;;;12.49;100.00;102490.28;5052243;28;20548;-60
2021/10/07 00:16:10;;;;;;;20.58;2.85;;;;;;;12.45;100.00;102487.72;5052459;28;20078;-60
2021/10/07 00:18:40;;;;;;;13.50;2.70;;;;;;;12.41;100.00;102483.38;5052708;28;20466;-60
2021/10/07 00:21:06;;;;;;;10.93;2.63;;;;;;;12.37;100.00;102494.16;5052627;28;20029;-60
2021/10/07 00:23:56;;;;;;;12.07;2.70;;;;;;;12.31;100.00;102487.19;5051806;28;20059;-60
2021/10/07 00:26:21;;;;;;;13.85;2.65;;;;;;;12.27;100.00;102488.19;5052390;28;20070;-60
2021/10/07 00:28:47;;;;;;;9.40;2.90;;;;;;;12.23;100.00;102492.69;5052649;28;20289;-60
2021/10/07 00:31:18;;;;;;;12.25;2.83;;;;;;;12.23;100.00;102491.84;5051734;28;20044;-60
2021/10/07 00:33:59;;;;;;;13.98;3.00;;;;;;;12.25;100.00;102498.84;5052483;28;20031;-59
2021/10/07 00:36:54;;;;;;;18.02;3.13;;;;;;;12.29;100.00;102495.22;5051936;28;20082;-60
2021/10/07 00:39:20;;;;;;;13.13;3.08;;;;;;;12.32;100.00;102504.88;5052154;28;20045;-60
2021/10/07 00:41:46;;;;;;;19.23;3.17;;;;;;;12.32;100.00;102502.22;5052633;28;20591;-61
2021/10/07 00:44:11;;;;;;;14.23;3.15;;;;;;;12.36;100.00;102505.69;5052551;28;20483;-60
2021/10/07 00:46:49;;;;;;;16.77;3.20;;;;;;;12.37;100.00;102504.78;5051742;28;20036;-60
2021/10/07 00:49:14;;;;;;;20.83;3.45;;;;;;;12.43;100.00;102507.28;5052599;28;20114;-60
2021/10/07 00:51:40;;;;;;;17.00;3.42;;;;;;;12.45;100.00;102506.34;5052248;28;20488;-60
2021/10/07 00:54:05;;;;;;;15.02;3.50;;;;;;;12.48;100.00;102509.78;5052808;28;20021;-60
2021/10/07 00:56:31;;;;;;;12.73;2.92;;;;;;;12.49;100.00;102514.22;5052169;28;20040;-60
2021/10/07 00:58:57;;;;;;;15.25;2.95;;;;;;;12.50;100.00;102515.97;5052407;28;20283;-58
2021/10/07 01:01:22;;;;;;;11.98;2.90;;;;;;;12.50;100.00;102519.47;5041069;28;20114;-61
2021/10/07 01:03:48;;;;;;;19.92;3.85;;;;;;;12.50;100.00;102526.59;5050334;28;20079;-60
2021/10/07 01:06:13;;;;;;;13.25;3.25;;;;;;;12.50;100.00;102516.81;5051868;28;20448;-60
2021/10/07 01:08:39;;;;;;;16.73;3.78;;;;;;;12.50;100.00;102516.81;5052635;28;20041;-60
2021/10/07 01:11:04;;;;;;;12.27;3.10;;;;;;;12.50;100.00;102519.47;5052231;28;20033;-60
2021/10/07 01:13:29;;;;;;;15.70;4.30;;;;;;;12.50;100.00;102515.97;5051931;28;20108;-60
2021/10/07 01:16:01;;;;;;;15.60;3.30;;;;;;;12.49;100.00;102523.03;5051897;28;20444;-60
2021/10/07 01:18:26;;;;;;;12.23;3.38;;;;;;;12.46;100.00;102526.66;5051728;28;20029;-60
2021/10/07 01:20:52;;;;;;;11.43;3.08;;;;;;;12.42;100.00;102518.81;5051062;28;20083;-60
2021/10/07 01:23:17;;;;;;;18.13;3.33;;;;;;;12.37;100.00;102532.19;5051951;28;20090;-59
2021/10/07 01:25:43;;;;;;;16.08;3.30;;;;;;;12.34;100.00;102526.97;5052386;28;20017;-57
2021/10/07 01:28:08;;;;;;;13.45;3.03;;;;;;;12.31;100.00;102535.00;5051688;28;20489;-60
2021/10/07 01:30:33;;;;;;;17.88;3.70;;;;;;;12.27;100.00;102534.22;5052045;28;20035;-59
2021/10/07 01:32:59;;;;;;;17.23;3.45;;;;;;;12.26;100.00;102544.88;5052123;28;20028;-60
2021/10/07 01:35:24;;;;;;;14.55;3.28;;;;;;;12.28;100.00;102537.75;5051947;28;20029;-58
2021/10/07 01:37:50;;;;;;;14.73;3.25;;;;;;;12.32;100.00;102544.72;5051915;28;20072;-59
2021/10/07 01:40:17;;;;;;;18.85;3.20;;;;;;;12.33;100.00;102545.59;5051690;28;20077;-59
2021/10/07 01:42:42;;;;;;;10.30;2.80;;;;;;;12.32;100.00;102547.38;5056009;28;20044;-58
2021/10/07 01:45:12;;;;;;;14.02;3.40;;;;;;;12.32;100.00;102551.84;5055889;28;20021;-59
2021/10/07 01:47:38;;;;;;;16.15;3.47;;;;;;;12.32;100.00;102547.38;5055033;28;20529;-59
2021/10/07 01:50:07;;;;;;;16.05;3.28;;;;;;;12.31;100.00;102550.94;5055282;28;20057;-59
2021/10/07 01:52:32;;;;;;;17.23;3.67;;;;;;;12.32;100.00;102554.50;5055850;28;20031;-60
2021/10/07 01:54:58;;;;;;;15.50;3.28;;;;;;;12.31;100.00;102569.53;5043439;28;20021;-60
2021/10/07 01:57:23;;;;;;;21.00;3.63;;;;;;;12.31;100.00;102561.56;5055669;28;20025;-60
2021/10/07 01:59:48;;;;;;;11.13;2.78;;;;;;;12.32;100.00;102563.31;5055585;28;20040;-60
2021/10/07 02:02:14;;;;;;;11.65;3.30;;;;;;;12.32;100.00;102565.97;5055568;28;20361;-58
2021/10/07 02:04:39;;;;;;;11.10;3.40;;;;;;;12.33;100.00;102572.16;5055428;28;20456;-60
2021/10/07 02:07:05;;;;;;;14.32;3.40;;;;;;;12.33;100.00;102575.69;5054941;28;20028;-60
2021/10/07 02:09:30;;;;;;;11.85;3.17;;;;;;;12.34;100.00;102573.91;5055395;28;20025;-59
2021/10/07 02:11:55;;;;;;;7.50;2.65;;;;;;;12.33;100.00;102564.19;5055415;28;20028;-60
2021/10/07 02:14:22;;;;;;;15.80;3.38;;;;;;;12.33;100.00;102569.50;5055550;28;20029;-60
2021/10/07 02:16:47;;;;;;;11.48;3.47;;;;;;;12.33;100.00;102573.03;5055035;28;20037;-59
2021/10/07 02:19:12;;;;;;;15.18;3.38;;;;;;;12.34;100.00;102574.78;5054838;28;20033;-60
2021/10/07 02:21:38;;;;;;;12.40;3.30;;;;;;;12.34;100.00;102585.44;5055358;28;20465;-59
2021/10/07 02:24:04;;;;;;;9.07;2.92;;;;;;;12.34;100.00;102576.56;5055200;28;20120;-59
2021/10/07 02:26:29;;;;;;;11.13;3.20;;;;;;;12.33;100.00;102575.69;5055475;28;20460;-60
2021/10/07 02:28:54;;;;;;;13.13;3.08;;;;;;;12.34;100.00;102582.75;5054693;28;20120;-58
2021/10/07 02:31:21;;;;;;;10.98;3.28;;;;;;;12.34;100.00;102585.44;5055079;28;20029;-60
2021/10/07 02:33:48;;;;;;;9.10;3.08;;;;;;;12.36;100.00;102582.72;5054760;28;20040;-59
2021/10/07 02:36:14;;;;;;;16.65;3.20;;;;;;;12.35;100.00;102588.94;5055049;28;20090;-59
2021/10/07 02:38:39;;;;;;;12.02;2.83;;;;;;;12.34;100.00;102581.88;5054185;28;20033;-59
2021/10/07 02:41:04;;;;;;;11.27;3.30;;;;;;;12.34;100.00;102592.50;5054944;28;20048;-59
2021/10/07 02:43:30;;;;;;;10.82;3.53;;;;;;;12.32;100.00;102581.91;5055016;28;20025;-60
2021/10/07 02:45:55;;;;;;;15.82;3.63;;;;;;;12.33;100.00;102586.31;5054892;28;20029;-59
2021/10/07 02:48:21;;;;;;;9.23;3.53;;;;;;;12.33;100.00;102586.31;5053943;28;20024;-59
2021/10/07 02:50:46;;;;;;;17.15;4.13;;;;;;;12.33;100.00;102585.44;5053155;28;20037;-59
2021/10/07 02:53:11;;;;;;;13.40;3.40;;;;;;;12.33;100.00;102590.75;5054784;28;20017;-60
2021/10/07 02:55:36;;;;;;;15.55;3.75;;;;;;;12.33;100.00;102588.09;5054109;28;20477;-60
2021/10/07 02:58:02;;;;;;;14.73;3.60;;;;;;;12.38;100.00;102586.19;5048510;28;20108;-59
2021/10/07 03:00:27;;;;;;;13.43;3.53;;;;;;;12.38;100.00;102584.44;5048967;28;20029;-60
2021/10/07 03:02:53;;;;;;;15.65;3.53;;;;;;;12.38;100.00;102589.75;5054072;28;20041;-59
2021/10/07 03:05:18;;;;;;;15.18;3.92;;;;;;;12.39;100.00;102590.59;5054059;28;20387;-60
2021/10/07 03:07:43;;;;;;;11.80;3.30;;;;;;;12.40;100.00;102595.88;5054556;28;20108;-59
2021/10/07 03:10:09;;;;;;;16.48;3.47;;;;;;;12.41;100.00;102602.94;5053773;28;20028;-60
2021/10/07 03:12:35;;;;;;;12.88;3.38;;;;;;;12.40;100.00;102603.84;5054610;28;20025;-60
2021/10/07 03:15:00;;;;;;;11.13;3.30;;;;;;;12.38;100.00;102605.69;5054426;28;20459;-59
2021/10/07 03:17:25;;;;;;;14.45;3.58;;;;;;;12.37;100.00;102600.41;5054338;28;20535;-59
2021/10/07 03:19:51;;;;;;;14.52;3.65;;;;;;;12.36;100.00;102607.50;5053853;28;20048;-59
2021/10/07 03:22:16;;;;;;;11.32;3.88;;;;;;;12.37;100.00;102605.72;5055184;28;20497;-59
2021/10/07 03:24:43;;;;;;;11.88;3.67;;;;;;;12.35;100.00;102607.53;5054268;28;20029;-59
2021/10/07 03:27:08;;;;;;;12.77;3.70;;;;;;;12.32;100.00;102610.28;5054088;28;20417;-59
2021/10/07 03:29:34;;;;;;;15.88;3.65;;;;;;;12.28;100.00;102609.47;5054328;28;20029;-59
2021/10/07 03:31:59;;;;;;;11.68;3.28;;;;;;;12.28;100.00;102614.78;5053240;28;20036;-59
2021/10/07 03:34:25;;;;;;;15.93;4.05;;;;;;;12.29;100.00;102612.09;5053663;28;20033;-60
2021/10/07 03:36:50;;;;;;;16.40;4.05;;;;;;;12.31;100.00;102621.81;5053211;28;20013;-59
2021/10/07 03:39:17;;;;;;;13.98;3.40;;;;;;;12.26;100.00;102617.50;5053034;28;20512;-59
2021/10/07 03:41:42;;;;;;;16.17;3.47;;;;;;;12.22;100.00;102620.22;5052943;28;20118;-60
2021/10/07 03:44:07;;;;;;;10.60;3.20;;;;;;;12.18;100.00;102624.75;5053620;28;20053;-60
2021/10/07 03:46:33;;;;;;;13.50;3.38;;;;;;;12.18;100.00;102631.84;5053792;28;20029;-59
2021/10/07 03:48:59;;;;;;;12.18;3.45;;;;;;;12.19;100.00;102628.28;5053549;28;20103;-59
2021/10/07 03:51:24;;;;;;;9.93;3.15;;;;;;;12.17;100.00;102620.34;5053242;28;20021;-59
2021/10/07 03:53:49;;;;;;;12.88;3.58;;;;;;;12.17;100.00;102632.75;5052779;28;20037;-60
2021/10/07 03:56:15;;;;;;;14.00;3.53;;;;;;;12.17;100.00;102635.41;5053566;28;20274;-60
2021/10/07 03:58:40;;;;;;;16.10;4.05;;;;;;;12.18;100.00;102635.38;5053370;28;20043;-57
2021/10/07 04:01:05;;;;;;;11.15;3.58;;;;;;;12.20;100.00;102635.31;5053198;28;20028;-58
2021/10/07 04:03:31;;;;;;;16.95;3.95;;;;;;;12.20;100.00;102641.53;5052271;28;20040;-60
2021/10/07 04:05:57;;;;;;;22.00;4.03;;;;;;;12.22;100.00;102649.44;5052836;28;20056;-58
2021/10/07 04:08:23;;;;;;;15.73;4.55;;;;;;;12.22;100.00;102655.63;5053135;28;20052;-57
2021/10/07 04:10:52;;;;;;;12.40;3.67;;;;;;;12.23;100.00;102653.88;5052857;28;20072;-57
2021/10/07 04:13:18;;;;;;;14.82;4.07;;;;;;;12.24;100.00;102658.28;5053065;28;20057;-57
2021/10/07 04:15:44;;;;;;;14.30;4.32;;;;;;;12.25;100.00;102655.56;5052792;28;20052;-58
2021/10/07 04:18:09;;;;;;;10.98;3.40;;;;;;;12.28;100.00;102662.59;5053061;28;20053;-59
2021/10/07 04:20:34;;;;;;;9.25;3.42;;;;;;;12.31;100.00;102661.66;5053103;28;20037;-60
2021/10/07 04:22:59;;;;;;;12.75;3.38;;;;;;;12.29;100.00;102673.19;5052627;28;20051;-60
2021/10/07 04:25:25;;;;;;;10.32;3.40;;;;;;;12.28;100.00;102657.28;5051763;28;20044;-58
2021/10/07 04:27:55;;;;;;;13.15;3.55;;;;;;;12.28;100.00;102662.59;5052788;28;20040;-59
2021/10/07 04:30:21;;;;;;;13.13;3.40;;;;;;;12.29;100.00;102670.53;5052254;28;20210;-58
2021/10/07 04:32:46;;;;;;;15.23;3.40;;;;;;;12.31;100.00;102673.13;5052778;28;20584;-58
2021/10/07 04:35:12;;;;;;;12.07;3.50;;;;;;;12.32;100.00;102666.94;5051578;28;20048;-58
2021/10/07 04:37:37;;;;;;;13.38;3.45;;;;;;;12.32;100.00;102669.59;5051951;28;20027;-58
2021/10/07 04:40:04;;;;;;;14.15;3.67;;;;;;;12.35;100.00;102665.97;5051802;28;20182;-58
2021/10/07 04:42:29;;;;;;;15.75;3.92;;;;;;;12.37;100.00;102675.66;5052028;28;20051;-58
2021/10/07 04:44:54;;;;;;;14.80;3.70;;;;;;;12.37;100.00;102675.66;5052174;28;20457;-57
2021/10/07 04:47:19;;;;;;;12.73;3.70;;;;;;;12.34;100.00;102677.50;5051171;28;20037;-61
2021/10/07 04:49:45;;;;;;;14.48;3.63;;;;;;;12.35;100.00;102680.13;5052331;28;20028;-58
2021/10/07 04:52:10;;;;;;;11.65;3.67;;;;;;;12.35;100.00;102679.25;5051501;28;20092;-58
2021/10/07 04:54:35;;;;;;;18.00;4.00;;;;;;;12.34;100.00;102682.81;5051795;28;20024;-57
2021/10/07 04:57:01;;;;;;;17.77;4.32;;;;;;;12.32;100.00;102680.22;5044594;28;20438;-58
2021/10/07 04:59:26;;;;;;;15.23;4.25;;;;;;;12.33;100.00;102675.75;5042795;28;20441;-58
2021/10/07 05:01:51;;;;;;;18.60;4.90;;;;;;;12.30;100.00;102682.00;5052093;28;20493;-58
2021/10/07 05:04:17;;;;;;;16.88;4.68;;;;;;;12.31;100.00;102678.44;5052476;28;20071;-60
2021/10/07 05:06:42;;;;;;;12.30;4.88;;;;;;;12.30;100.00;102682.00;5051684;28;20500;-59
2021/10/07 05:09:07;;;;;;;12.68;3.88;;;;;;;12.35;100.00;102690.75;5051623;28;20062;-60
2021/10/07 05:11:33;;;;;;;18.10;4.47;;;;;;;12.33;100.00;102695.25;5051965;28;20029;-60
2021/10/07 05:13:58;;;;;;;14.43;4.20;;;;;;;12.27;100.00;102687.41;5052490;28;20037;-59
2021/10/07 05:16:24;;;;;;;16.02;4.50;;;;;;;12.24;100.00;102698.13;5053786;28;20203;-59
2021/10/07 05:18:49;;;;;;;16.98;4.38;;;;;;;12.21;100.00;102695.50;5051293;28;20128;-59
2021/10/07 05:21:14;;;;;;;12.80;3.95;;;;;;;12.18;100.00;102695.59;5051873;28;20123;-59
2021/10/07 05:23:40;;;;;;;11.88;4.10;;;;;;;12.14;100.00;102700.09;5051210;28;20452;-59
2021/10/07 05:26:06;;;;;;;15.52;4.47;;;;;;;12.06;100.00;102709.97;5051353;28;20025;-59
2021/10/07 05:28:31;;;;;;;14.98;4.25;;;;;;;12.00;100.00;102704.81;5050970;28;20021;-59
2021/10/07 05:30:56;;;;;;;16.90;4.30;;;;;;;11.92;100.00;102700.50;5051388;28;20071;-60
2021/10/07 05:33:22;;;;;;;12.00;4.22;;;;;;;11.86;100.00;102713.03;5051517;28;20025;-59
2021/10/07 05:35:49;;;;;;;13.98;4.03;;;;;;;11.79;100.00;102715.81;5051426;28;20036;-59
2021/10/07 05:38:15;;;;;;;13.93;4.50;;;;;;;11.71;100.00;102731.00;5051102;28;20116;-59
2021/10/07 05:40:40;;;;;;;11.13;4.13;;;;;;;11.61;100.00;102714.41;5050397;28;20116;-60
2021/10/07 05:43:08;;;;;;;13.90;4.00;;;;;;;11.55;100.00;102725.13;5051042;28;20036;-59
2021/10/07 05:45:33;;;;;;;16.33;4.65;;;;;;;11.49;100.00;102725.22;5051181;28;20047;-59
2021/10/07 05:47:59;;;;;;;16.10;4.65;;;;;;;11.42;100.00;102721.81;5050610;28;20104;-60
2021/10/07 05:50:24;;;;;;;20.23;4.18;;;;;;;11.33;100.00;102724.66;5050856;28;20377;-59
2021/10/07 05:52:49;;;;;;;9.65;4.22;;;;;;;11.25;100.00;102714.16;5051034;28;20055;-59
2021/10/07 05:55:15;;;;;;;13.95;3.75;;;;;;;11.20;100.00;102718.69;5050513;28;20020;-59
2021/10/07 05:57:40;;;;;;;11.35;3.92;;;;;;;11.15;100.00;102725.81;5050694;28;20048;-60
2021/10/07 06:00:08;;;;;;;12.85;4.95;;;;;;;11.12;100.00;102729.38;5050599;28;20159;-58
2021/10/07 06:02:36;;;;;;;12.80;4.65;;;;;;;11.09;100.00;102723.28;5050701;28;20037;-60
2021/10/07 06:05:03;;;;;;;17.70;4.68;;;;;;;11.05;100.00;102734.81;5050620;28;20037;-58
2021/10/07 06:07:29;;;;;;;13.90;4.55;;;;;;;11.02;100.00;102740.19;5050767;28;20062;-59
2021/10/07 06:09:54;;;;;;;16.67;5.30;;;;;;;10.95;100.00;102734.97;5047724;28;20419;-59
2021/10/07 06:12:19;;;;;;;14.27;4.53;;;;;;;10.92;100.00;102742.09;5046834;28;20032;-59
2021/10/07 06:14:45;;;;;;;11.65;4.70;;;;;;;10.91;100.00;102737.72;5046390;28;20036;-59
2021/10/07 06:17:12;;;;;;;14.82;4.75;;;;;;;10.90;100.00;102743.91;5050153;28;20416;-59
2021/10/07 06:19:40;;;;;;;15.40;4.97;;;;;;;10.87;100.00;102749.25;5050700;28;20021;-60
2021/10/07 06:22:06;;;;;;;10.68;4.20;;;;;;;10.87;100.00;102742.19;5049622;28;20044;-59
2021/10/07 06:24:31;;;;;;;13.82;5.47;;;;;;;10.84;100.00;102744.00;5050435;28;20377;-59
2021/10/07 06:26:57;;;;;;;18.15;5.68;;;;;;;10.81;100.00;102752.88;5049877;28;20033;-59
2021/10/07 06:29:23;;;;;;;12.85;5.15;;;;;;;10.78;100.00;102751.16;5050455;28;20452;-58
2021/10/07 06:31:48;;;;;;;14.18;6.13;;;;;;;10.79;100.00;102755.56;5054497;28;20058;-58
2021/10/07 06:34:13;;;;;;;15.18;5.95;;;;;;;10.80;100.00;102757.28;5049361;28;20086;-59
2021/10/07 06:36:39;;;;;;;14.07;6.07;;;;;;;10.80;100.00;102762.59;5042858;28;20547;-57
2021/10/07 06:39:06;;;;;;;13.95;6.22;;;;;;;10.84;100.00;102763.41;5039129;28;20491;-59
2021/10/07 06:41:32;;;;;;;15.25;5.75;;;;;;;10.89;100.00;102766.00;5050241;28;20079;-59
2021/10/07 06:43:57;;;;;;;18.90;6.90;;;;;;;10.90;100.00;102763.34;5050123;28;20021;-56
2021/10/07 06:46:25;;;;;;;14.70;6.68;;;;;;;10.90;100.00;102776.59;5050685;28;20033;-59
2021/10/07 06:48:54;;;;;;;14.73;6.05;;;;;;;10.93;100.00;102779.22;5050576;28;20492;-57
2021/10/07 06:51:20;;;;;;;16.17;7.22;;;;;;;11.02;100.00;102786.13;5049977;28;20172;-59
2021/10/07 06:53:49;;;;;;;17.52;7.32;;;;;;;11.09;100.00;102786.94;5050099;28;20115;-59
2021/10/07 06:56:15;;;;;;;15.50;6.95;;;;;;;11.20;100.00;102786.72;5050082;28;20440;-59
2021/10/07 06:58:40;;;;;;;16.95;7.13;;;;;;;11.25;100.00;102793.75;5050095;28;20120;-59
2021/10/07 07:01:05;;;;;;;13.80;5.75;;;;;;;11.31;100.00;102790.97;5050231;28;20028;-58
2021/10/07 07:03:30;;;;;;;14.65;6.45;;;;;;;11.42;100.00;102801.41;5049949;28;20210;-58
2021/10/07 07:05:56;;;;;;;23.35;7.53;;;;;;;11.54;100.00;102792.34;5049870;28;20044;-55
2021/10/07 07:08:21;;;;;;;16.80;7.50;;;;;;;11.72;100.00;102803.53;5050367;28;20029;-57
2021/10/07 07:10:46;;;;;;;15.82;6.90;;;;;;;11.87;100.00;102800.59;5049916;28;20032;-58
2021/10/07 07:13:12;;;;;;;12.82;6.93;;;;;;;11.96;100.00;102807.56;5048441;28;20040;-56
2021/10/07 07:15:37;;;;;;;16.73;7.32;;;;;;;12.04;100.00;102808.28;5049680;28;20413;-59
2021/10/07 07:18:02;;;;;;;18.27;8.20;;;;;;;12.24;100.00;102807.88;5044775;28;20035;-57
2021/10/07 07:20:28;;;;;;;21.65;8.30;;;;;;;12.48;100.00;102805.63;5048659;28;20108;-56
2021/10/07 07:22:53;;;;;;;22.17;8.98;;;;;;;12.71;100.00;102801.56;5041917;28;20108;-58
2021/10/07 07:25:18;;;;;;;19.52;8.55;;;;;;;12.84;100.00;102805.72;5045786;28;20029;-58
2021/10/07 07:27:45;;;;;;;18.13;8.23;;;;;;;12.95;100.00;102810.78;5048975;28;20029;-59
2021/10/07 07:30:11;;;;;;;17.05;6.90;;;;;;;13.09;100.00;102811.34;5049118;28;20032;-59
2021/10/07 07:32:37;;;;;;;20.05;8.10;;;;;;;13.22;100.00;102816.34;5049702;28;20777;-60
2021/10/07 07:35:03;;;;;;;18.27;7.68;;;;;;;13.27;100.00;102817.13;5049137;28;20029;-58
2021/10/07 07:37:28;;;;;;;15.25;6.63;;;;;;;13.36;100.00;102822.25;5045817;28;20073;-55
2021/10/07 07:39:54;;;;;;;14.63;6.90;;;;;;;13.52;100.00;102824.53;5048490;28;20071;-58
2021/10/07 07:42:20;;;;;;;16.02;7.40;;;;;;;13.64;100.00;102823.34;5046236;28;20036;-59
2021/10/07 07:44:46;;;;;;;20.80;7.57;;;;;;;13.77;100.00;102825.66;5049117;28;20120;-58
2021/10/07 07:47:11;;;;;;;16.25;7.60;;;;;;;13.87;100.00;102830.72;5049652;28;20025;-58
2021/10/07 07:49:38;;;;;;;14.82;7.07;;;;;;;13.93;100.00;102836.75;5049131;28;20368;-59
2021/10/07 07:52:04;;;;;;;16.90;7.10;;;;;;;14.03;100.00;102842.72;5048796;28;20418;-60
2021/10/07 07:54:29;;;;;;;13.13;6.13;;;;;;;14.14;98.93;102847.72;5049304;28;20060;-57
2021/10/07 07:56:54;;;;;;;13.63;6.40;;;;;;;14.24;98.22;102845.69;5049081;28;20021;-58
2021/10/07 07:59:20;;;;;;;18.30;5.63;;;;;;;14.38;97.40;102850.63;5046732;28;20094;-59
2021/10/07 08:01:45;;;;;;;13.35;5.45;;;;;;;14.62;97.00;102850.84;5048283;28;20047;-58
2021/10/07 08:04:10;;;;;;;12.07;4.75;;;;;;;14.69;94.12;102857.75;5048195;28;20037;-58
2021/10/07 08:06:36;;;;;;;13.43;4.68;;;;;;;14.75;93.68;102860.25;5048920;28;20166;-59
2021/10/07 08:09:04;;;;;;;15.30;4.22;;;;;;;14.79;92.63;102861.03;5048576;28;20032;-58
2021/10/07 08:11:31;;;;;;;11.68;3.53;;;;;;;14.82;91.91;102861.81;5048972;28;20076;-58
2021/10/07 08:13:58;;;;;;;15.32;4.63;;;;;;;14.84;91.29;102867.09;5048117;28;20056;-59
2021/10/07 08:16:25;;;;;;;10.95;4.00;;;;;;;14.85;91.02;102861.69;5048471;28;20055;-59
2021/10/07 08:18:50;;;;;;;14.43;5.35;;;;;;;14.79;90.58;102858.34;5048171;28;20037;-58
2021/10/07 08:21:16;;;;;;;15.50;3.97;;;;;;;14.78;90.99;102865.47;5048437;28;20319;-59
2021/10/07 08:23:41;;;;;;;12.00;4.10;;;;;;;14.74;90.75;102867.38;5047749;28;20025;-59
2021/10/07 08:26:06;;;;;;;9.50;4.30;;;;;;;14.70;91.38;102865.69;5048168;28;20096;-58
2021/10/07 08:28:32;;;;;;;10.90;4.40;;;;;;;14.71;91.14;102878.13;5048352;28;20098;-57
2021/10/07 08:30:57;;;;;;;15.52;4.30;;;;;;;14.75;90.42;102866.44;5048249;28;20017;-56
2021/10/07 08:33:22;;;;;;;12.80;4.00;;;;;;;14.89;90.57;102871.34;5047760;28;20423;-54
2021/10/07 08:35:50;;;;;;;11.82;4.53;;;;;;;15.01;90.42;102874.56;5048061;28;20102;-59
2021/10/07 08:38:17;;;;;;;11.48;4.35;;;;;;;15.09;90.22;102875.22;5048241;28;20064;-58
2021/10/07 08:40:43;;;;;;;10.18;3.15;;;;;;;15.10;88.12;102874.28;5043443;28;20049;-57
2021/10/07 08:43:08;;;;;;;13.18;3.42;;;;;;;15.15;88.79;102880.34;5048135;28;20036;-59
2021/10/07 08:45:34;;;;;;;15.75;3.78;;;;;;;15.19;87.74;102881.13;5047584;28;20110;-58
2021/10/07 08:47:59;;;;;;;15.13;3.17;;;;;;;15.28;86.14;102880.84;5047638;28;20033;-55
2021/10/07 08:50:25;;;;;;;17.42;3.83;;;;;;;15.38;85.52;102889.41;5048190;28;20128;-57
2021/10/07 08:52:51;;;;;;;14.40;3.33;;;;;;;15.55;85.37;102887.06;5048397;28;20128;-58
2021/10/07 08:55:17;;;;;;;10.88;2.53;;;;;;;15.77;84.12;102896.16;5047956;28;20125;-58
2021/10/07 08:57:43;;;;;;;13.65;2.95;;;;;;;15.93;82.88;102892.06;5048342;28;20025;-59
2021/10/07 09:00:14;;;;;;;12.05;2.85;;;;;;;16.10;81.63;102896.84;5047713;28;20345;-57
2021/10/07 09:02:40;;;;;;;9.93;2.45;;;;;;;16.26;80.08;102888.25;5038347;28;20048;-58
2021/10/07 09:05:17;;;;;;;10.63;3.00;;;;;;;16.49;80.15;102898.13;5047926;28;20124;-58
2021/10/07 09:08:01;;;;;;;10.57;2.88;;;;;;;16.63;80.54;102894.94;5048175;28;20033;-59
2021/10/07 09:10:38;;;;;;;7.40;2.55;;;;;;;16.77;81.75;102897.09;5047458;28;20055;-56
2021/10/07 09:13:22;;;;;;;13.00;2.90;;;;;;;16.77;80.95;102897.09;5047809;28;20021;-57
2021/10/07 09:15:54;;;;;;;9.80;2.65;;;;;;;17.00;81.71;102893.53;5046995;28;20032;-59
2021/10/07 09:18:20;;;;;;;11.20;2.60;;;;;;;17.03;77.21;102893.41;5052230;28;20033;-58
2021/10/07 09:20:48;;;;;;;11.63;2.63;;;;;;;17.05;75.51;102888.88;5052474;28;20036;-58
2021/10/07 09:23:32;;;;;;;11.23;2.40;;;;;;;17.12;77.99;102893.06;5051840;28;20033;-59
2021/10/07 09:26:11;;;;;;;7.90;2.50;;;;;;;17.26;76.45;102888.94;5052081;28;20550;-57
2021/10/07 09:28:56;;;;;;;12.50;2.50;;;;;;;17.10;75.32;102884.22;5051501;28;20033;-58
2021/10/07 09:31:24;;;;;;;8.55;2.35;;;;;;;17.13;75.15;102892.09;5051107;28;20435;-59
2021/10/07 09:33:53;;;;;;;9.38;2.30;;;;;;;16.93;75.31;102892.91;5051715;28;20492;-57
2021/10/07 09:36:20;;;;;;;8.23;2.42;;;;;;;16.93;74.51;102889.34;5052192;28;20021;-57
2021/10/07 09:38:48;;;;;;;8.50;2.50;;;;;;;16.93;75.51;102892.03;5051376;28;20469;-58
2021/10/07 09:41:20;;;;;;;11.07;2.83;;;;;;;16.97;76.92;102894.53;5052191;28;20037;-59
2021/10/07 09:43:56;;;;;;;13.02;3.05;;;;;;;16.98;77.87;102890.03;5053238;28;20024;-59
2021/10/07 09:46:50;;;;;;;9.35;2.55;;;;;;;16.87;77.30;102893.13;5051249;28;20037;-59
2021/10/07 09:49:21;;;;;;;13.43;2.65;;;;;;;16.94;78.28;102889.28;5051609;28;20089;-58
2021/10/07 09:51:55;;;;;;;10.48;2.80;;;;;;;16.92;74.98;102892.94;5051941;28;20520;-58
2021/10/07 09:54:31;;;;;;;10.43;2.95;;;;;;;16.99;76.83;102898.00;5050764;28;20057;-56
2021/10/07 09:56:59;;;;;;;9.38;2.47;;;;;;;16.92;74.22;102896.53;5035110;28;20350;-57
2021/10/07 09:59:27;;;;;;;5.93;1.77;;;;;;;17.10;74.27;102899.41;5036635;28;20037;-58
2021/10/07 10:01:55;;;;;;;7.90;2.58;;;;;;;17.25;72.33;102897.91;5048708;28;20028;-58
2021/10/07 10:04:21;;;;;;;6.30;1.98;;;;;;;17.29;71.37;102892.38;5050274;28;20062;-58
2021/10/07 10:06:46;;;;;;;9.55;1.83;;;;;;;17.39;68.57;102894.66;5050414;28;20163;-57
2021/10/07 10:09:12;;;;;;;6.75;1.50;;;;;;;17.42;68.24;102897.25;5050139;28;20509;-57
2021/10/07 10:11:40;;;;;;;4.63;1.60;;;;;;;17.76;70.57;102894.03;5049654;28;20110;-58
2021/10/07 10:14:06;;;;;;;8.30;2.47;;;;;;;17.91;72.81;102905.88;5049741;28;20021;-59
2021/10/07 10:16:34;;;;;;;5.63;1.70;;;;;;;18.15;67.37;102903.97;5049787;28;20184;-58
2021/10/07 10:19:00;;;;;;;11.57;2.10;;;;;;;18.59;70.73;102894.00;5040230;28;20051;-55
2021/10/07 10:21:27;;;;;;;11.27;2.20;;;;;;;19.25;63.97;102896.25;5049751;28;20115;-58
2021/10/07 10:23:54;;;;;;;8.10;1.90;;;;;;;19.42;63.52;102897.25;5049898;28;20029;-58
2021/10/07 10:26:20;;;;;;;6.78;1.63;;;;;;;19.46;63.68;102897.03;5049852;28;20040;-59
2021/10/07 10:28:52;;;;;;;10.77;2.25;;;;;;;19.35;63.44;102893.09;5050104;28;20041;-58
2021/10/07 10:31:31;;;;;;;7.40;2.17;;;;;;;19.14;64.53;102898.59;5049543;28;20056;-58
2021/10/07 10:34:15;;;;;;;7.25;1.92;;;;;;;19.42;64.42;102894.56;5049523;28;20113;-58
2021/10/07 10:36:47;;;;;;;10.07;1.85;;;;;;;20.81;64.15;102892.72;5049953;28;20017;-58
2021/10/07 10:39:37;;;;;;;6.80;1.77;;;;;;;22.22;54.60;102896.16;5050041;28;20059;-58
2021/10/07 10:42:08;;;;;;;8.00;2.30;;;;;;;22.95;49.72;102893.47;5049900;28;20021;-57
2021/10/07 10:44:46;;;;;;;9.32;2.17;;;;;;;23.61;50.26;102896.31;5050569;28;20231;-58
2021/10/07 10:47:12;;;;;;;7.38;2.00;;;;;;;24.01;47.85;102897.19;5049690;28;20067;-58
2021/10/07 10:49:40;;;;;;;7.07;1.80;;;;;;;24.47;50.48;102897.63;5049935;28;20056;-58
2021/10/07 10:52:25;;;;;;;5.68;1.98;;;;;;;24.14;44.72;102894.47;5050278;28;20300;-58
2021/10/07 10:55:23;;;;;;;4.95;1.90;;;;;;;24.42;48.20;102895.22;5049111;28;20093;-58
2021/10/07 10:57:50;;;;;;;3.92;1.77;;;;;;;25.17;45.74;102902.44;5049323;28;20083;-58
2021/10/07 11:00:28;;;;;;;7.55;2.05;;;;;;;25.83;44.04;102909.28;5049726;28;20041;-59
2021/10/07 11:03:19;;;;;;;5.47;1.90;;;;;;;26.11;40.97;102901.72;5049810;28;20017;-59
2021/10/07 11:05:59;;;;;;;4.80;1.80;;;;;;;25.48;42.99;102894.72;5050077;28;20157;-58
2021/10/07 11:08:25;;;;;;;8.48;2.10;;;;;;;25.97;42.88;102898.22;5049864;28;20195;-57
2021/10/07 11:10:55;;;;;;;6.78;1.77;;;;;;;25.63;42.42;102897.28;5049858;28;20893;-59
2021/10/07 11:13:25;;;;;;;4.17;1.43;;;;;;;25.85;40.55;102900.03;5048059;28;20464;-57